EGFF/CWL METAR and TAF weather

Enter ICAO airport designator
Station Type Date Time Source
EGFF METAR 2019/10/21 22:50 UTC NOAA

EGFF 212250Z AUTO 02004KT 9999 BKN041 08/06 Q1023


Station Type Date Time Source
EGFF Decoded METAR 2019/10/21 22:50 UTC NOAA

Cardiff-Wales Airport, United Kingdom (EGFF) 51-24N 003-21W 0M
Oct 21, 2019 - 06:50 PM EDT / 2019.10.21 2250 UTC
Wind: from the NNE (020 degrees) at 5 MPH (4 KT):0
Visibility: greater than 7 mile(s):0
Sky conditions: mostly cloudy
Temperature: 46 F (8 C)
Dew Point: 42 F (6 C)
Relative Humidity: 87%
Pressure (altimeter): 30.21 in. Hg (1023 hPa)
ob: EGFF 212250Z AUTO 02004KT 9999 BKN041 08/06 Q1023
cycle: 23

Station Type Date Time Source
EGFF TAF 2019/10/21 18:09 UTC NOAA

TAF EGFF 211701Z 2118/2218 VRB05KT 9999 SCT025 PROB30
TEMPO 2122/2202 5000 BR
BECMG 2202/2205 4000 BR PROB30 2203/2209 1200
BECMG 2209/2212 9999 NSW

Example: see airport list